| time (UTC) | temp F | wind direction | speed MPH | gust MPH | rain 1hr in | rain 24hr in | rain mn in | humidity % | barometer mb |
| 20260506154530 | 55 | 136 | 0.0 | 4.0 | 0.00 | 0.00 | 0.00 | 99 | 1007.7 |
| 20260506153040 | 55 | 192 | 1.0 | 8.0 | 0.00 | 0.00 | 0.00 | 99 | 1007.5 |
| 20260506151529 | 55 | 132 | 3.0 | 7.0 | 0.00 | 0.00 | 0.00 | 99 | 1007.4 |
| 20260506150028 | 55 | 158 | 0.0 | 5.0 | 0.00 | 0.00 | 0.00 | 99 | 1007.4 |
| 20260506144549 | 54 | 175 | 0.0 | 4.0 | 0.00 | 0.00 | 0.00 | 99 | 1007.4 |
| 20260506143028 | 54 | 141 | 1.0 | 6.0 | 0.00 | 0.00 | 0.00 | 99 | 1007.1 |
| 20260506141525 | 54 | 164 | 1.0 | 5.0 | 0.00 | 0.00 | 0.00 | 99 | 1007.4 |
| 20260506140035 | 53 | 158 | 2.0 | 3.0 | 0.00 | 0.00 | 0.00 | 99 | 1007.6 |
| 20260506134523 | 53 | 134 | 0.0 | 4.0 | 0.00 | 0.00 | 0.00 | 99 | 1008.0 |
| 20260506133020 | 53 | 153 | 0.0 | 0.0 | 0.00 | 0.00 | 0.00 | 99 | 1008.3 |
| 20260506131525 | 53 | 126 | 0.0 | 0.0 | 0.00 | 0.00 | 0.00 | 99 | 1008.7 |
| 20260506130018 | 53 | 126 | 0.0 | 0.0 | 0.00 | 0.00 | 0.00 | 99 | 1008.6 |
| 20260506124514 | 53 | 126 | 0.0 | 0.0 | 0.00 | 0.00 | 0.00 | 99 | 1008.1 |
| 20260506123014 | 53 | 126 | 0.0 | 0.0 | 0.00 | 0.00 | 0.00 | 99 | 1008.3 |
| 20260506121510 | 53 | 126 | 0.0 | 0.0 | 0.00 | 0.00 | 0.00 | 99 | 1008.3 |
| 20260506120018 | 52 | 126 | 0.0 | 0.0 | 0.00 | 0.00 | 0.00 | 99 | 1008.3 |
| 20260506114517 | 52 | 126 | 0.0 | 0.0 | 0.00 | 0.00 | 0.00 | 99 | 1008.3 |
| 20260506113007 | 52 | 126 | 0.0 | 2.0 | 0.00 | 0.00 | 0.00 | 98 | 1008.3 |
| 20260506111506 | 52 | 124 | 0.0 | 0.0 | 0.00 | 0.00 | 0.00 | 98 | 1008.6 |
| 20260506110004 | 52 | 126 | 0.0 | 0.0 | 0.00 | 0.00 | 0.00 | 98 | 1008.7 |
| 20260506104503 | 52 | 126 | 0.0 | 0.0 | 0.00 | 0.00 | 0.00 | 97 | 1008.5 |
| 20260506103002 | 52 | 126 | 0.0 | 3.0 | 0.00 | 0.00 | 0.00 | 97 | 1008.3 |
| 20260506101600 | 53 | 132 | 0.0 | 0.0 | 0.00 | 0.00 | 0.00 | 96 | 1008.1 |
| 20260506100109 | 54 | 132 | 0.0 | 3.0 | 0.00 | 0.00 | 0.00 | 94 | 1008.1 |
| 20260506094605 | 54 | 144 | 0.0 | 0.0 | 0.00 | 0.00 | 0.00 | 93 | 1007.9 |
| 20260506093058 | 55 | 144 | 0.0 | 4.0 | 0.00 | 0.00 | 0.00 | 91 | 1007.7 |
| 20260506091557 | 54 | 132 | 0.0 | 3.0 | 0.00 | 0.00 | 0.00 | 93 | 1007.7 |
| 20260506090055 | 54 | 159 | 0.0 | 3.0 | 0.00 | 0.00 | 0.00 | 97 | 1007.9 |
| 20260506084556 | 53 | 155 | 0.0 | 0.0 | 0.00 | 0.00 | 0.00 | 98 | 1008.0 |
| 20260506083057 | 53 | 154 | 0.0 | 0.0 | 0.00 | 0.00 | 0.00 | 99 | 1007.7 |
| 20260506081605 | 53 | 173 | 0.0 | 2.0 | 0.00 | 0.00 | 0.00 | 99 | 1007.7 |
| 20260506073051 | 54 | 173 | 0.0 | 3.0 | 0.00 | 0.00 | 0.00 | 99 | 1007.9 |
| 20260506071548 | 54 | 33 | 0.0 | 0.0 | 0.00 | 0.00 | 0.00 | 99 | 1008.1 |
| 20260506061546 | 53 | 342 | 0.0 | 0.0 | 0.00 | 0.00 | 0.00 | 99 | 1008.8 |
| 20260506044544 | 54 | 343 | 0.0 | 0.0 | 0.00 | 0.00 | 0.00 | 99 | 1009.8 |
| 20260506043027 | 54 | 343 | 0.0 | 2.0 | 0.00 | 0.00 | 0.00 | 99 | 1009.9 |
| 20260506041525 | 55 | 5 | 0.0 | 0.0 | 0.00 | 0.00 | 0.00 | 99 | 1009.9 |
| 20260506040022 | 55 | 40 | 0.0 | 2.0 | 0.00 | 0.00 | 0.00 | 99 | 1010.0 |
| 20260506034522 | 54 | 41 | 0.0 | 0.0 | 0.00 | 0.00 | 0.00 | 99 | 1010.0 |
| 20260506033026 | 55 | 41 | 0.0 | 0.0 | 0.00 | 0.00 | 0.00 | 99 | 1010.1 |
| 20260506031537 | 55 | 41 | 0.0 | 0.0 | 0.00 | 0.00 | 0.00 | 99 | 1009.9 |
| 20260506030018 | 56 | 41 | 0.0 | 0.0 | 0.00 | 0.00 | 0.00 | 99 | 1009.8 |
| 20260506024526 | 56 | 41 | 0.0 | 3.0 | 0.00 | 0.00 | 0.00 | 99 | 1009.7 |
| 20260506023018 | 56 | 79 | 0.0 | 0.0 | 0.00 | 0.00 | 0.00 | 99 | 1009.7 |
| 20260506021518 | 57 | 79 | 0.0 | 0.0 | 0.00 | 0.00 | 0.00 | 99 | 1009.6 |
| 20260506020017 | 57 | 79 | 0.0 | 3.0 | 0.00 | 0.00 | 0.00 | 99 | 1009.4 |
| 20260506014516 | 57 | 79 | 0.0 | 0.0 | 0.00 | 0.00 | 0.00 | 99 | 1009.6 |
| 20260506013020 | 57 | 79 | 0.0 | 0.0 | 0.00 | 0.00 | 0.00 | 99 | 1009.4 |
| 20260506011518 | 57 | 79 | 0.0 | 0.0 | 0.00 | 0.00 | 0.00 | 99 | 1009.1 |
| 20260506010040 | 57 | 79 | 0.0 | 0.0 | 0.00 | 0.00 | 0.00 | 99 | 1008.9 |
| 20260506004514 | 57 | 79 | 0.0 | 0.0 | 0.00 | 0.00 | 0.00 | 98 | 1008.8 |
| 20260506003014 | 57 | 79 | 0.0 | 0.0 | 0.00 | 0.00 | 0.00 | 98 | 1008.6 |
| 20260506001513 | 58 | 78 | 0.0 | 1.0 | 0.00 | 0.00 | 0.00 | 98 | 1008.6 |
| 20260506000014 | 57 | 78 | 0.0 | 0.0 | 0.00 | 0.00 | 0.00 | 98 | 1008.5 |
| 20260505234512 | 58 | 78 | 0.0 | 0.0 | 0.00 | 0.00 | 0.00 | 98 | 1008.4 |
| 20260505233012 | 58 | 78 | 0.0 | 0.0 | 0.00 | 0.00 | 0.00 | 98 | 1008.5 |
| 20260505231512 | 59 | 78 | 0.0 | 2.0 | 0.00 | 0.00 | 0.00 | 98 | 1008.3 |
| 20260505230009 | 59 | 78 | 0.0 | 0.0 | 0.00 | 0.00 | 0.00 | 97 | 1008.2 |
| 20260505224509 | 59 | 78 | 0.0 | 1.0 | 0.00 | 0.00 | 0.00 | 97 | 1008.5 |
| 20260505223008 | 59 | 78 | 0.0 | 1.0 | 0.00 | 0.00 | 0.00 | 96 | 1008.1 |
| 20260505221508 | 59 | 78 | 0.0 | 0.0 | 0.00 | 0.00 | 0.00 | 96 | 1007.6 |
| 20260505220007 | 60 | 78 | 0.0 | 0.0 | 0.00 | 0.00 | 0.00 | 96 | 1007.5 |
| 20260505214507 | 59 | 78 | 0.0 | 3.0 | 0.00 | 0.00 | 0.00 | 96 | 1007.8 |
| 20260505213017 | 59 | 27 | 0.0 | 0.0 | 0.00 | 0.00 | 0.00 | 95 | 1007.9 |
| 20260505211505 | 59 | 27 | 0.0 | 1.0 | 0.00 | 0.00 | 0.00 | 94 | 1007.7 |
| 20260505210004 | 58 | 340 | 0.0 | 5.0 | 0.00 | 0.00 | 0.00 | 92 | 1008.4 |
| 20260505204502 | 59 | 5 | 0.0 | 7.0 | 0.00 | 0.00 | 0.00 | 87 | 1008.0 |
| 20260505203059 | 67 | 343 | 3.0 | 11.0 | 0.00 | 0.00 | 0.00 | 62 | 1008.4 |
| 20260505201559 | 71 | 219 | 2.0 | 11.0 | 0.00 | 0.00 | 0.00 | 44 | 1006.6 |
| 20260505200057 | 72 | 184 | 3.0 | 14.0 | 0.00 | 0.00 | 0.00 | 42 | 1006.3 |
| 20260505194557 | 73 | 192 | 5.0 | 18.0 | 0.00 | 0.00 | 0.00 | 43 | 1006.1 |
| 20260505193056 | 76 | 175 | 7.0 | 14.0 | 0.00 | 0.00 | 0.00 | 40 | 1006.1 |
| 20260505191605 | 75 | 145 | 6.0 | 16.0 | 0.00 | 0.00 | 0.00 | 41 | 1006.4 |
| 20260505190100 | 74 | 148 | 1.0 | 9.0 | 0.00 | 0.00 | 0.00 | 41 | 1006.7 |
| 20260505184551 | 75 | 219 | 6.0 | 13.0 | 0.00 | 0.00 | 0.00 | 41 | 1007.0 |
| 20260505183112 | 77 | 298 | 3.0 | 18.0 | 0.00 | 0.00 | 0.00 | 40 | 1007.0 |
| 20260505181548 | 75 | 272 | 5.0 | 15.0 | 0.00 | 0.00 | 0.00 | 38 | 1007.4 |
| 20260505180048 | 76 | 101 | 4.0 | 18.0 | 0.00 | 0.00 | 0.00 | 37 | 1007.5 |
| 20260505174546 | 75 | 112 | 8.0 | 23.0 | 0.00 | 0.00 | 0.00 | 42 | 1007.6 |
| 20260505173051 | 76 | 205 | 8.0 | 19.0 | 0.00 | 0.00 | 0.00 | 41 | 1007.8 |
| 20260505171548 | 75 | 131 | 4.0 | 22.0 | 0.00 | 0.00 | 0.00 | 44 | 1007.5 |
| 20260505170040 | 74 | 54 | 3.0 | 8.0 | 0.00 | 0.00 | 0.00 | 46 | 1007.5 |
| 20260505164538 | 73 | 132 | 5.0 | 21.0 | 0.00 | 0.00 | 0.00 | 46 | 1008.0 |
| 20260505163036 | 74 | 227 | 4.0 | 17.0 | 0.00 | 0.00 | 0.00 | 47 | 1008.2 |
| 20260505161533 | 73 | 136 | 2.0 | 15.0 | 0.00 | 0.00 | 0.00 | 48 | 1008.3 |